Overview Statistics Trail Chart Weather Telemetry Raw packets
 

This is the latest recevied weather packets stored in our database for station/object OM5ZU-10. If no packets are shown the sender has not sent any weather packets the latest 10 day(s).

<< 8 9 10 11 12 13 14 >>
Time Temp. Humidity Pressure Rain* Wind** Luminosity Snow
1788365242 25.56° C 43% 1018 hPa - - - -
1788364342 26.11° C 40% 1018 hPa - - - -
1788363442 26.11° C 41% 1018.1 hPa - - - -
1788362542 28.33° C 36% 1018.2 hPa - - - -
1788361642 27.78° C 36% 1018.3 hPa - - - -
1788360742 27.22° C 38% 1018.5 hPa - - - -
1788359841 30.56° C 34% 1018.4 hPa - - - -
1788358941 27.78° C 37% 1018.6 hPa - - - -
1788358041 28.89° C 34% 1018.6 hPa - - - -
1788357141 30.56° C 33% 1018.8 hPa - - - -
1788356241 30.56° C 33% 1018.9 hPa - - - -
1788355341 31.11° C 33% 1019 hPa - - - -
1788354440 30.56° C 32% 1019.2 hPa - - - -
1788353540 30° C 35% 1019.3 hPa - - - -
1788352640 30° C 34% 1019.4 hPa - - - -
1788351740 30.56° C 34% 1019.5 hPa - - - -
1788350839 27.78° C 39% 1019.8 hPa - - - -
1788349939 30° C 35% 1020 hPa - - - -
1788349038 29.44° C 35% 1020.2 hPa - - - -
1788348138 28.33° C 37% 1020.4 hPa - - - -
1788347237 28.33° C 37% 1020.5 hPa - - - -
1788346337 28.89° C 37% 1020.7 hPa - - - -
1788345437 28.33° C 36% 1020.8 hPa - - - -
1788344537 27.78° C 37% 1021 hPa - - - -
1788343637 27.22° C 37% 1021.1 hPa - - - -

* Rain since midnight (hover to see other rain measurements)
** Current wind speed in m/s (hover to see current wind gust speed)